Portada
METAR-TAF:

METAR-TAF

Aeroports :

General Santos, Filipines

latitud: 06-03-29N, longitud: 125-05-46E, altitud: 154 m

Observació

L'informe es va fer fa 28 minuts, a les 01:00 UTC
Vent 2 kt del Est/Sud-Est
Temperatura 31°C
Humitat 66%
Pressió 1013 hPa
Visibilitat 10 km o més
Escasses núvols a una alçada de 1800 ft, Cumulonimbus.

METAR: RPMR 210100Z 12002KT 9999 FEW018CB 31/24 Q1013 NOSIG RMK A2991 CB NE/E

Hora: 09:28 (01:28 UTC)

Pronòstic

L'informe es va fer fa 2 hores i 28 minuts, a les 23:00 UTC
Pronòstic vàlid del 21 a les 00 UTC al 21 a les 24 UTC
Vent 6 kt del Sud/Sud-Est
Visibilitat 10 km o més
Escasses núvols a una alçada de 1800 ft
Núvols disperses a una alçada de 8000 ft
Temporalment
l' 21 a les 00 UTC al 21 a les 06 UTC
Vent 10 kt del Nord/Nord-Est
Escasses núvols a una alçada de 1700 ft, Cumulonimbus.
Cel ennuvolat a una alçada de 8000 ft

TAF: RPMR 202300Z 2100/2124 16006KT 9999 FEW018 SCT080 TEMPO 2100/2106 03010KT FEW017CB BKN080

Observacions i pronòstics meteorològics de més de 4000 aeroports (METAR i TAF).

Les estacions disponibles són els punts grocs i vermells al mapa.

Posi el ratolí al punt desitjat per veure el nom de l'estació.

Feu clic per veure les observacions i els pronòstics meteorològics.

Per canviar el mapa: feu clic els botons verds amb una creu de color negre per apropar; al botó verd amb un guió per allunyar la imatge; o en les fletxes verdes per a mapes adjacents.


METAR-TAF: